Time;durP1;ratioP1;P1;durP2;ratioP2;P2;SDS_P1;SDS_P2;PMS_P1;PMS_P2;Temp;Humidity;BMP_temperature;BMP_pressure;BME280_temperature;BME280_humidity;BME280_pressure;Samples;Min_cycle;Max_cycle;Signal;HPM_P1;HPM_P2
2022/04/14 00:02:15;;;;;;;16.65;6.95;;;;;;;;;;6145446;23;20036;-50
2022/04/14 00:04:40;;;;;;;13.65;7.43;;;;;;;;;;6144129;23;20006;-49
2022/04/14 00:07:05;;;;;;;15.98;7.40;;;;;;;;;;6146491;23;20023;-48
2022/04/14 00:09:30;;;;;;;13.13;7.43;;;;;;;;;;6144460;23;20049;-50
2022/04/14 00:11:56;;;;;;;17.25;7.88;;;;;;;;;;6145917;23;20014;-50
2022/04/14 00:14:21;;;;;;;21.42;8.25;;;;;;;;;;6144297;23;20048;-51
2022/04/14 00:16:46;;;;;;;21.67;8.35;;;;;;;;;;6144974;23;20017;-50
2022/04/14 00:19:12;;;;;;;22.90;6.78;;;;;;;;;;6146392;23;20018;-51
2022/04/14 00:21:37;;;;;;;12.82;6.97;;;;;;;;;;6143640;23;20065;-50
2022/04/14 00:24:03;;;;;;;13.95;7.15;;;;;;;;;;6145934;23;20531;-53
2022/04/14 00:26:28;;;;;;;16.48;8.13;;;;;;;;;;6142969;23;20013;-49
2022/04/14 00:28:53;;;;;;;13.02;7.43;;;;;;;;;;6145615;23;20037;-51
2022/04/14 00:31:19;;;;;;;19.30;8.05;;;;;;;;;;6142150;23;20006;-51
2022/04/14 00:33:44;;;;;;;12.98;7.35;;;;;;;;;;6145524;23;20401;-52
2022/04/14 00:36:09;;;;;;;25.30;8.85;;;;;;;;;;6145676;23;20010;-50
2022/04/14 00:38:34;;;;;;;20.17;7.90;;;;;;;;;;6142897;23;20340;-48
2022/04/14 00:41:00;;;;;;;18.08;8.38;;;;;;;;;;6146207;23;20010;-50
2022/04/14 00:43:33;;;;;;;23.77;7.75;;;;;;;;;;6143220;23;20013;-51
2022/04/14 00:45:59;;;;;;;19.85;7.97;;;;;;;;;;6146434;23;20009;-51
2022/04/14 00:48:25;;;;;;;25.67;9.57;;;;;;;;;;6144178;23;20053;-53
2022/04/14 00:50:50;;;;;;;22.70;8.95;;;;;;;;;;6145910;23;20013;-50
2022/04/14 00:53:15;;;;;;;15.52;7.88;;;;;;;;;;6144278;23;20016;-50
2022/04/14 00:55:40;;;;;;;26.40;9.90;;;;;;;;;;6145043;23;20009;-53
2022/04/14 00:58:06;;;;;;;16.70;8.13;;;;;;;;;;6145299;23;20018;-50
2022/04/14 01:00:31;;;;;;;22.55;9.27;;;;;;;;;;6144648;23;20021;-52
2022/04/14 01:02:57;;;;;;;24.67;10.25;;;;;;;;;;6145085;23;20539;-49
2022/04/14 01:05:22;;;;;;;25.52;9.20;;;;;;;;;;6144669;23;20033;-50
2022/04/14 01:07:49;;;;;;;25.45;9.43;;;;;;;;;;6144553;23;20550;-52
2022/04/14 01:10:15;;;;;;;18.52;9.73;;;;;;;;;;6145348;23;20182;-50
2022/04/14 01:12:40;;;;;;;20.88;10.45;;;;;;;;;;6144464;23;20495;-50
2022/04/14 01:15:12;;;;;;;15.23;9.40;;;;;;;;;;6144082;23;20051;-53
2022/04/14 01:17:38;;;;;;;20.05;9.40;;;;;;;;;;6144106;23;20002;-50
2022/04/14 01:20:04;;;;;;;22.25;9.85;;;;;;;;;;6144617;23;20032;-50
2022/04/14 01:22:35;;;;;;;23.58;10.18;;;;;;;;;;6144340;23;20006;-53
2022/04/14 01:25:01;;;;;;;26.25;10.30;;;;;;;;;;6144218;23;20009;-51
2022/04/14 01:27:26;;;;;;;22.42;10.40;;;;;;;;;;6136540;23;20048;-49
2022/04/14 01:29:52;;;;;;;22.88;10.10;;;;;;;;;;6146025;23;20013;-48
2022/04/14 01:32:26;;;;;;;17.23;9.55;;;;;;;;;;6143492;23;20067;-51
2022/04/14 01:34:52;;;;;;;19.23;10.48;;;;;;;;;;6144248;23;20037;-54
2022/04/14 01:37:17;;;;;;;18.92;10.15;;;;;;;;;;6143467;23;20018;-51
2022/04/14 01:39:43;;;;;;;24.60;10.35;;;;;;;;;;6145700;23;20013;-53
2022/04/14 01:42:08;;;;;;;16.95;9.90;;;;;;;;;;6144302;23;20009;-51
2022/04/14 01:44:33;;;;;;;18.77;10.85;;;;;;;;;;6144694;23;20013;-52
2022/04/14 01:46:59;;;;;;;25.20;11.95;;;;;;;;;;6144352;23;20741;-52
2022/04/14 01:49:24;;;;;;;20.55;9.63;;;;;;;;;;6142657;23;20014;-49
2022/04/14 01:51:49;;;;;;;24.60;10.50;;;;;;;;;;6145529;23;20560;-50
2022/04/14 01:54:15;;;;;;;20.00;11.05;;;;;;;;;;6144853;23;20018;-49
2022/04/14 01:56:41;;;;;;;22.88;10.90;;;;;;;;;;6143616;23;20040;-50
2022/04/14 01:59:06;;;;;;;22.77;11.23;;;;;;;;;;6146517;23;20231;-52
2022/04/14 02:01:32;;;;;;;21.58;11.05;;;;;;;;;;6146512;23;20024;-51
2022/04/14 02:03:58;;;;;;;20.10;10.65;;;;;;;;;;6149212;23;20505;-50
2022/04/14 02:06:23;;;;;;;26.65;11.48;;;;;;;;;;6145585;23;20013;-50
2022/04/14 02:08:49;;;;;;;20.90;10.65;;;;;;;;;;6141906;23;20028;-49
2022/04/14 02:11:14;;;;;;;16.30;10.18;;;;;;;;;;6147675;23;20364;-51
2022/04/14 02:13:40;;;;;;;22.95;10.98;;;;;;;;;;6146119;23;20010;-51
2022/04/14 02:16:05;;;;;;;24.25;12.35;;;;;;;;;;6141482;23;20036;-52
2022/04/14 02:18:31;;;;;;;18.77;10.38;;;;;;;;;;6143584;23;20017;-51
2022/04/14 02:20:56;;;;;;;18.98;10.45;;;;;;;;;;6147870;23;20140;-51
2022/04/14 02:23:22;;;;;;;22.55;11.23;;;;;;;;;;6144770;23;20021;-48
2022/04/14 02:25:47;;;;;;;28.40;11.65;;;;;;;;;;6147267;23;20014;-50
2022/04/14 02:28:15;;;;;;;18.17;10.50;;;;;;;;;;6146814;23;20227;-48
2022/04/14 02:30:41;;;;;;;25.20;10.70;;;;;;;;;;6176084;23;20009;-48
2022/04/14 02:33:06;;;;;;;19.35;11.07;;;;;;;;;;6176365;23;20024;-48
2022/04/14 02:35:31;;;;;;;17.25;10.45;;;;;;;;;;6174722;23;20368;-54
2022/04/14 02:37:57;;;;;;;19.35;10.07;;;;;;;;;;6174771;23;20015;-50
2022/04/14 02:40:26;;;;;;;20.33;10.02;;;;;;;;;;6173517;23;20005;-49
2022/04/14 02:42:53;;;;;;;18.45;10.65;;;;;;;;;;6176202;23;20012;-48
2022/04/14 02:45:19;;;;;;;23.58;11.85;;;;;;;;;;6175755;23;20068;-49
2022/04/14 02:47:44;;;;;;;19.60;11.50;;;;;;;;;;6175435;23;20017;-49
2022/04/14 02:50:09;;;;;;;18.63;9.88;;;;;;;;;;6176298;23;20024;-50
2022/04/14 02:52:34;;;;;;;15.65;9.65;;;;;;;;;;6176010;23;20068;-48
2022/04/14 02:55:00;;;;;;;16.42;9.88;;;;;;;;;;6176852;23;20069;-49
2022/04/14 02:57:25;;;;;;;15.82;9.57;;;;;;;;;;6173990;23;20087;-50
2022/04/14 02:59:50;;;;;;;17.23;10.15;;;;;;;;;;6176714;23;20009;-51
2022/04/14 03:02:15;;;;;;;20.65;9.98;;;;;;;;;;6174441;23;20013;-48
2022/04/14 03:04:41;;;;;;;14.32;9.05;;;;;;;;;;6175751;23;20021;-52
2022/04/14 03:07:06;;;;;;;13.32;8.93;;;;;;;;;;6174998;23;20033;-51
2022/04/14 03:09:32;;;;;;;19.48;9.52;;;;;;;;;;6176424;23;20017;-49
2022/04/14 03:11:57;;;;;;;13.30;8.25;;;;;;;;;;6174605;23;20013;-50
2022/04/14 03:14:22;;;;;;;15.30;7.72;;;;;;;;;;6165598;23;20029;-51
2022/04/14 03:16:47;;;;;;;13.45;7.25;;;;;;;;;;6144658;23;20017;-50
2022/04/14 03:19:13;;;;;;;11.90;7.32;;;;;;;;;;6146540;23;20020;-49
2022/04/14 03:21:38;;;;;;;14.43;8.15;;;;;;;;;;6169473;23;20009;-48
2022/04/14 03:24:03;;;;;;;15.85;8.98;;;;;;;;;;6146118;23;20005;-49
2022/04/14 03:26:29;;;;;;;13.57;7.97;;;;;;;;;;6144638;23;20033;-48
2022/04/14 03:28:54;;;;;;;15.75;8.40;;;;;;;;;;6145373;23;20002;-52
2022/04/14 03:31:19;;;;;;;11.75;8.00;;;;;;;;;;6144800;23;20005;-53
2022/04/14 03:33:44;;;;;;;14.70;7.82;;;;;;;;;;6147356;23;20014;-49
2022/04/14 03:36:10;;;;;;;11.43;7.05;;;;;;;;;;6145707;23;20010;-51
2022/04/14 03:38:35;;;;;;;14.48;7.97;;;;;;;;;;6144593;23;20009;-51
2022/04/14 03:41:02;;;;;;;14.60;8.43;;;;;;;;;;6146686;23;20010;-50
2022/04/14 03:43:28;;;;;;;13.55;8.40;;;;;;;;;;6142194;23;20025;-52
2022/04/14 03:45:53;;;;;;;16.38;7.55;;;;;;;;;;6146296;23;20016;-51
2022/04/14 03:48:18;;;;;;;16.50;8.05;;;;;;;;;;6143383;23;20081;-50
2022/04/14 03:50:44;;;;;;;14.88;8.57;;;;;;;;;;6146716;23;20041;-49
2022/04/14 03:53:09;;;;;;;17.45;8.30;;;;;;;;;;6143352;23;20020;-52
2022/04/14 03:55:34;;;;;;;14.00;7.95;;;;;;;;;;6146364;23;20009;-52
2022/04/14 03:57:59;;;;;;;14.73;8.05;;;;;;;;;;6145057;23;20013;-48
2022/04/14 04:00:25;;;;;;;15.50;7.97;;;;;;;;;;6145306;23;20028;-50
2022/04/14 04:02:51;;;;;;;15.77;8.43;;;;;;;;;;6144577;23;20021;-50
2022/04/14 04:05:16;;;;;;;12.88;7.38;;;;;;;;;;6145490;23;20010;-53
2022/04/14 04:07:41;;;;;;;11.43;6.00;;;;;;;;;;6143237;23;20229;-51
2022/04/14 04:10:07;;;;;;;9.38;6.03;;;;;;;;;;6145946;23;20870;-51
2022/04/14 04:12:32;;;;;;;10.85;6.10;;;;;;;;;;6143198;23;20684;-49
2022/04/14 04:14:57;;;;;;;10.95;5.80;;;;;;;;;;6145965;23;20033;-52
2022/04/14 04:17:22;;;;;;;10.48;5.90;;;;;;;;;;6144773;23;20017;-49
2022/04/14 04:19:48;;;;;;;10.55;6.00;;;;;;;;;;6145828;23;20009;-49
2022/04/14 04:22:13;;;;;;;13.63;6.90;;;;;;;;;;6146011;23;20014;-51
2022/04/14 04:24:38;;;;;;;15.55;7.68;;;;;;;;;;6144064;23;20001;-48
2022/04/14 04:27:04;;;;;;;17.10;7.25;;;;;;;;;;6145293;23;20022;-49
2022/04/14 04:29:29;;;;;;;11.90;7.22;;;;;;;;;;6145149;23;20040;-48
2022/04/14 04:31:54;;;;;;;16.02;8.90;;;;;;;;;;6144619;23;20579;-51
2022/04/14 04:34:20;;;;;;;15.38;10.02;;;;;;;;;;6145964;23;20009;-54
2022/04/14 04:36:45;;;;;;;14.77;9.63;;;;;;;;;;6143232;23;20020;-50
2022/04/14 04:39:10;;;;;;;16.13;9.13;;;;;;;;;;6145895;23;20009;-50
2022/04/14 04:41:35;;;;;;;17.23;9.32;;;;;;;;;;6143538;23;20010;-50
2022/04/14 04:44:01;;;;;;;22.20;11.02;;;;;;;;;;6146528;23;20010;-51
2022/04/14 04:46:26;;;;;;;18.15;10.13;;;;;;;;;;6143976;23;20041;-49
2022/04/14 04:48:51;;;;;;;20.48;9.40;;;;;;;;;;6146791;23;20009;-50
2022/04/14 04:51:17;;;;;;;19.83;9.48;;;;;;;;;;6144122;23;20353;-50
2022/04/14 04:53:42;;;;;;;17.42;9.38;;;;;;;;;;6146469;23;20028;-52
2022/04/14 04:56:07;;;;;;;16.30;9.68;;;;;;;;;;6143923;23;20018;-47
2022/04/14 04:58:33;;;;;;;17.13;10.13;;;;;;;;;;6146097;23;20048;-49
2022/04/14 05:00:58;;;;;;;22.25;10.60;;;;;;;;;;6144094;23;20396;-51
2022/04/14 05:03:23;;;;;;;23.27;10.60;;;;;;;;;;6168892;23;20013;-52
2022/04/14 05:05:49;;;;;;;15.75;9.73;;;;;;;;;;6144459;23;20010;-49
2022/04/14 05:08:15;;;;;;;15.60;9.48;;;;;;;;;;6144106;23;20049;-48
2022/04/14 05:10:40;;;;;;;15.00;8.80;;;;;;;;;;6143583;23;20014;-48
2022/04/14 05:13:06;;;;;;;18.85;10.13;;;;;;;;;;6144987;23;20013;-48
2022/04/14 05:15:31;;;;;;;14.88;9.65;;;;;;;;;;6144569;23;20078;-49
2022/04/14 05:17:56;;;;;;;15.30;10.82;;;;;;;;;;6145712;23;20017;-50
2022/04/14 05:20:21;;;;;;;20.00;10.88;;;;;;;;;;6141937;23;20041;-48
2022/04/14 05:22:47;;;;;;;16.92;11.13;;;;;;;;;;6146150;23;20010;-52
2022/04/14 05:25:12;;;;;;;25.05;9.45;;;;;;;;;;6144438;23;20037;-51
2022/04/14 05:27:39;;;;;;;14.98;9.30;;;;;;;;;;6147236;23;20018;-52
2022/04/14 05:30:04;;;;;;;12.85;8.90;;;;;;;;;;6146154;23;20323;-52
2022/04/14 05:32:30;;;;;;;18.80;9.57;;;;;;;;;;6146769;23;20650;-50
2022/04/14 05:34:55;;;;;;;11.20;8.35;;;;;;;;;;6146687;23;20009;-50
2022/04/14 05:37:20;;;;;;;16.35;9.00;;;;;;;;;;6145843;23;20045;-52
2022/04/14 05:39:46;;;;;;;14.65;8.35;;;;;;;;;;6147565;23;20016;-48
2022/04/14 05:42:11;;;;;;;11.80;8.73;;;;;;;;;;6146321;23;20024;-49
2022/04/14 05:44:36;;;;;;;13.55;9.27;;;;;;;;;;6147463;23;20001;-53
2022/04/14 05:47:02;;;;;;;16.98;9.57;;;;;;;;;;6146962;23;20025;-51
2022/04/14 05:49:27;;;;;;;14.70;8.95;;;;;;;;;;6146209;23;20073;-51
2022/04/14 05:51:52;;;;;;;17.65;9.55;;;;;;;;;;6146980;23;20017;-50
2022/04/14 05:54:18;;;;;;;16.55;10.07;;;;;;;;;;6145023;23;20386;-52
2022/04/14 05:56:43;;;;;;;18.20;11.25;;;;;;;;;;6147243;23;20013;-49
2022/04/14 05:59:16;;;;;;;16.17;10.05;;;;;;;;;;6145402;23;20023;-49
2022/04/14 06:01:41;;;;;;;19.17;11.60;;;;;;;;;;6147750;23;20242;-53
2022/04/14 06:04:06;;;;;;;20.83;11.50;;;;;;;;;;6145294;23;20006;-50
2022/04/14 06:06:31;;;;;;;17.75;10.27;;;;;;;;;;6147827;23;20010;-49
2022/04/14 06:08:57;;;;;;;17.33;10.27;;;;;;;;;;6146960;23;20018;-49
2022/04/14 06:11:22;;;;;;;15.80;10.38;;;;;;;;;;6147144;23;20014;-51
2022/04/14 06:13:47;;;;;;;17.95;10.98;;;;;;;;;;6145615;23;20041;-49
2022/04/14 06:16:13;;;;;;;14.75;9.40;;;;;;;;;;6147928;23;20483;-49
2022/04/14 06:18:38;;;;;;;16.75;10.63;;;;;;;;;;6145062;23;20149;-50
2022/04/14 06:21:03;;;;;;;15.70;9.68;;;;;;;;;;6145407;23;20020;-51
2022/04/14 06:23:28;;;;;;;17.00;10.52;;;;;;;;;;6144037;23;20018;-52
2022/04/14 06:25:54;;;;;;;15.77;10.43;;;;;;;;;;6147211;23;20066;-52
2022/04/14 06:28:19;;;;;;;17.83;10.75;;;;;;;;;;6143944;23;20056;-48
2022/04/14 06:30:46;;;;;;;14.77;9.73;;;;;;;;;;6145876;23;20006;-51
2022/04/14 06:33:11;;;;;;;18.95;11.27;;;;;;;;;;6146941;23;20369;-49
2022/04/14 06:35:36;;;;;;;16.85;9.90;;;;;;;;;;6143316;23;20013;-48
2022/04/14 06:38:02;;;;;;;20.08;10.85;;;;;;;;;;6146923;23;20053;-50
2022/04/14 06:40:27;;;;;;;18.02;11.02;;;;;;;;;;6144133;23;20013;-52
2022/04/14 06:42:53;;;;;;;20.70;11.18;;;;;;;;;;6146214;23;20017;-49
2022/04/14 06:45:18;;;;;;;17.50;10.57;;;;;;;;;;6145050;23;20560;-49
2022/04/14 06:47:44;;;;;;;20.45;12.23;;;;;;;;;;6148557;23;20037;-49
2022/04/14 06:50:09;;;;;;;20.35;11.82;;;;;;;;;;6145185;23;20018;-50
2022/04/14 06:52:36;;;;;;;23.02;12.63;;;;;;;;;;6145750;23;20022;-50
2022/04/14 06:55:01;;;;;;;20.80;11.98;;;;;;;;;;6127041;23;20037;-51
2022/04/14 06:57:27;;;;;;;21.75;13.10;;;;;;;;;;6140195;23;21122;-52
2022/04/14 06:59:52;;;;;;;19.65;11.93;;;;;;;;;;6141350;23;20293;-51
2022/04/14 07:02:17;;;;;;;22.75;11.82;;;;;;;;;;6142153;23;20010;-51
2022/04/14 07:04:42;;;;;;;18.88;11.15;;;;;;;;;;6146828;23;20010;-50
2022/04/14 07:07:08;;;;;;;18.25;11.55;;;;;;;;;;6144009;23;20028;-50
2022/04/14 07:09:34;;;;;;;22.63;11.10;;;;;;;;;;6146925;23;20800;-49
2022/04/14 07:11:59;;;;;;;22.25;12.10;;;;;;;;;;6143723;23;20397;-52
2022/04/14 07:14:26;;;;;;;27.75;12.48;;;;;;;;;;6146564;23;20076;-53
2022/04/14 07:16:51;;;;;;;22.73;12.02;;;;;;;;;;6144054;23;20369;-50
2022/04/14 07:19:16;;;;;;;26.52;11.93;;;;;;;;;;6146450;23;20013;-51
2022/04/14 07:21:41;;;;;;;22.00;11.52;;;;;;;;;;6145422;23;20081;-51
2022/04/14 07:24:07;;;;;;;20.85;13.15;;;;;;;;;;6146703;23;20028;-51
2022/04/14 07:26:32;;;;;;;25.95;12.52;;;;;;;;;;6145434;23;20020;-52
2022/04/14 07:28:57;;;;;;;29.38;11.77;;;;;;;;;;6147026;23;20021;-51
2022/04/14 07:31:23;;;;;;;23.60;12.77;;;;;;;;;;6144824;23;20013;-48
2022/04/14 07:33:48;;;;;;;26.02;12.60;;;;;;;;;;6145287;23;20005;-51
2022/04/14 07:36:18;;;;;;;22.27;12.48;;;;;;;;;;6144599;23;20018;-53
2022/04/14 07:38:43;;;;;;;21.35;11.82;;;;;;;;;;6144493;23;20014;-49
2022/04/14 07:41:08;;;;;;;20.70;11.93;;;;;;;;;;6146459;23;20013;-52
2022/04/14 07:43:34;;;;;;;24.85;13.00;;;;;;;;;;6140088;23;20423;-50
2022/04/14 07:45:59;;;;;;;22.08;11.32;;;;;;;;;;6143533;23;20321;-53
2022/04/14 07:48:24;;;;;;;24.25;12.35;;;;;;;;;;6141126;23;20028;-53
2022/04/14 07:50:50;;;;;;;25.33;12.65;;;;;;;;;;6142489;23;20009;-52
2022/04/14 07:53:15;;;;;;;29.08;12.90;;;;;;;;;;6140738;23;20037;-52
2022/04/14 07:55:40;;;;;;;22.60;12.55;;;;;;;;;;6142924;23;20025;-49
2022/04/14 07:58:09;;;;;;;19.15;11.15;;;;;;;;;;6140779;23;20013;-53
2022/04/14 08:00:35;;;;;;;23.00;12.32;;;;;;;;;;6142916;23;20024;-53
2022/04/14 08:03:01;;;;;;;23.75;13.00;;;;;;;;;;6141141;23;20480;-50
2022/04/14 08:05:33;;;;;;;22.75;11.65;;;;;;;;;;6142273;23;20082;-53
2022/04/14 08:07:59;;;;;;;20.45;11.93;;;;;;;;;;6139928;23;20029;-52
2022/04/14 08:10:24;;;;;;;18.95;11.35;;;;;;;;;;6139619;23;20049;-53
2022/04/14 08:12:49;;;;;;;19.05;11.43;;;;;;;;;;6138713;23;20033;-49
2022/04/14 08:15:15;;;;;;;23.17;12.00;;;;;;;;;;6141448;23;20017;-53
2022/04/14 08:17:41;;;;;;;18.80;11.52;;;;;;;;;;6144878;23;20595;-50
2022/04/14 08:20:07;;;;;;;20.00;10.60;;;;;;;;;;6144448;23;20005;-53
2022/04/14 08:22:45;;;;;;;23.95;11.25;;;;;;;;;;6140842;23;20110;-55
2022/04/14 08:25:11;;;;;;;21.70;11.63;;;;;;;;;;6143106;23;20013;-53
2022/04/14 08:27:36;;;;;;;19.33;11.05;;;;;;;;;;6145885;23;20090;-51
2022/04/14 08:30:02;;;;;;;23.02;11.75;;;;;;;;;;6143704;23;20029;-53
2022/04/14 08:32:27;;;;;;;24.80;11.65;;;;;;;;;;6144642;23;20032;-54
2022/04/14 08:34:52;;;;;;;16.42;10.07;;;;;;;;;;6143253;23;20017;-53
2022/04/14 08:37:17;;;;;;;21.40;11.23;;;;;;;;;;6144816;23;20089;-54
2022/04/14 08:39:43;;;;;;;18.58;11.52;;;;;;;;;;6146424;23;20033;-53
2022/04/14 08:42:12;;;;;;;20.80;11.68;;;;;;;;;;6140704;23;20006;-54
2022/04/14 08:44:41;;;;;;;24.67;11.80;;;;;;;;;;6142621;23;20010;-55
2022/04/14 08:47:08;;;;;;;18.40;10.77;;;;;;;;;;6145373;23;20132;-55
2022/04/14 08:49:33;;;;;;;24.30;11.18;;;;;;;;;;6143098;23;20021;-50
2022/04/14 08:51:58;;;;;;;21.33;11.73;;;;;;;;;;6142101;23;20017;-54
2022/04/14 08:54:24;;;;;;;20.65;11.73;;;;;;;;;;6145334;23;20020;-51
2022/04/14 08:56:51;;;;;;;19.55;10.30;;;;;;;;;;6141167;23;20013;-53
2022/04/14 08:59:17;;;;;;;24.00;10.25;;;;;;;;;;6145118;23;20029;-50
2022/04/14 09:01:43;;;;;;;22.45;10.60;;;;;;;;;;6142589;23;20017;-52
2022/04/14 09:04:08;;;;;;;20.00;10.73;;;;;;;;;;6142866;23;20061;-53
2022/04/14 09:06:34;;;;;;;20.25;9.48;;;;;;;;;;6142970;23;20013;-49
2022/04/14 09:09:00;;;;;;;13.18;8.77;;;;;;;;;;6145449;23;20104;-51
2022/04/14 09:11:26;;;;;;;17.48;10.02;;;;;;;;;;6142326;23;20044;-50
2022/04/14 09:13:51;;;;;;;17.13;10.23;;;;;;;;;;6143607;23;20055;-50
2022/04/14 09:16:17;;;;;;;17.05;10.77;;;;;;;;;;6144105;23;20013;-50
2022/04/14 09:18:42;;;;;;;20.75;10.07;;;;;;;;;;6144379;23;20041;-55
2022/04/14 09:21:08;;;;;;;20.92;10.43;;;;;;;;;;6145259;23;20076;-55
2022/04/14 09:23:33;;;;;;;16.58;9.45;;;;;;;;;;6144654;23;20057;-54
2022/04/14 09:26:11;;;;;;;18.30;8.93;;;;;;;;;;6145361;23;20013;-53
2022/04/14 09:28:37;;;;;;;17.33;9.48;;;;;;;;;;6144425;23;20021;-52
2022/04/14 09:31:11;;;;;;;18.38;9.05;;;;;;;;;;6143552;23;20074;-54
2022/04/14 09:33:48;;;;;;;13.18;7.97;;;;;;;;;;6145952;23;20021;-53
2022/04/14 09:36:14;;;;;;;17.45;8.75;;;;;;;;;;6144156;23;20333;-53
2022/04/14 09:38:58;;;;;;;14.55;8.13;;;;;;;;;;6144654;23;20013;-53
2022/04/14 09:41:28;;;;;;;16.98;8.15;;;;;;;;;;6141814;23;20068;-53
2022/04/14 09:43:57;;;;;;;17.90;8.18;;;;;;;;;;6145222;23;20096;-53
2022/04/14 09:46:22;;;;;;;14.23;7.68;;;;;;;;;;6141815;23;20018;-48
2022/04/14 09:49:03;;;;;;;14.02;8.15;;;;;;;;;;6145211;23;20036;-54
2022/04/14 09:51:28;;;;;;;15.23;6.90;;;;;;;;;;6141423;23;20034;-54
2022/04/14 09:54:04;;;;;;;13.85;6.30;;;;;;;;;;6144966;23;20010;-52
2022/04/14 09:56:42;;;;;;;15.02;8.55;;;;;;;;;;6141673;23;20018;-52
2022/04/14 09:59:08;;;;;;;15.97;7.47;;;;;;;;;;6142647;23;20016;-54
2022/04/14 10:01:34;;;;;;;14.27;7.82;;;;;;;;;;6145234;23;20010;-52
2022/04/14 10:03:59;;;;;;;13.05;5.05;;;;;;;;;;6143893;23;20032;-53
2022/04/14 10:06:26;;;;;;;8.50;3.15;;;;;;;;;;6145280;23;20112;-49
2022/04/14 10:08:51;;;;;;;5.63;2.70;;;;;;;;;;6138479;23;20017;-51
2022/04/14 10:11:24;;;;;;;3.03;2.60;;;;;;;;;;6141168;23;20461;-52
2022/04/14 10:13:50;;;;;;;6.95;2.95;;;;;;;;;;6140249;23;20010;-54
2022/04/14 10:16:20;;;;;;;6.80;3.35;;;;;;;;;;6147345;23;20064;-52
2022/04/14 10:18:46;;;;;;;7.03;3.42;;;;;;;;;;6166817;23;20001;-51
2022/04/14 10:21:12;;;;;;;6.90;3.72;;;;;;;;;;6147075;23;20109;-53
2022/04/14 10:23:38;;;;;;;5.35;2.75;;;;;;;;;;6144368;23;20041;-50
2022/04/14 10:26:03;;;;;;;6.05;2.30;;;;;;;;;;6147082;23;20205;-53
2022/04/14 10:28:29;;;;;;;5.80;2.13;;;;;;;;;;6144265;23;20025;-53
2022/04/14 10:30:57;;;;;;;3.63;2.15;;;;;;;;;;6147100;23;20140;-52
2022/04/14 10:33:22;;;;;;;4.03;2.10;;;;;;;;;;6144721;23;20032;-51
2022/04/14 10:35:49;;;;;;;4.68;2.50;;;;;;;;;;6146893;23;20013;-53
2022/04/14 10:38:29;;;;;;;3.50;2.20;;;;;;;;;;6146062;23;20013;-52
2022/04/14 10:41:03;;;;;;;5.00;1.90;;;;;;;;;;6142958;23;20033;-52
2022/04/14 10:43:28;;;;;;;6.88;1.90;;;;;;;;;;6145704;23;20032;-51
2022/04/14 10:45:55;;;;;;;3.85;1.73;;;;;;;;;;6145955;23;20014;-51
2022/04/14 10:48:28;;;;;;;5.70;2.03;;;;;;;;;;6145403;23;20013;-54
2022/04/14 10:51:12;;;;;;;4.85;1.55;;;;;;;;;;6145600;23;20009;-54
2022/04/14 10:53:47;;;;;;;1.98;1.58;;;;;;;;;;6146671;23;20017;-49
2022/04/14 10:56:33;;;;;;;5.43;1.67;;;;;;;;;;6144813;23;20029;-51
2022/04/14 10:58:58;;;;;;;5.65;1.95;;;;;;;;;;6146429;23;20009;-52
2022/04/14 11:01:42;;;;;;;7.70;3.13;;;;;;;;;;6145974;23;20690;-54
2022/04/14 11:04:26;;;;;;;2.70;1.70;;;;;;;;;;6145218;23;20026;-51
2022/04/14 11:06:52;;;;;;;3.28;1.00;;;;;;;;;;6145427;23;20081;-52
2022/04/14 11:09:37;;;;;;;4.57;1.60;;;;;;;;;;6145489;23;20207;-49
2022/04/14 11:12:02;;;;;;;3.63;2.22;;;;;;;;;;6144995;23;20058;-52
2022/04/14 11:14:27;;;;;;;3.47;1.60;;;;;;;;;;6141185;23;20038;-54
2022/04/14 11:16:53;;;;;;;6.55;1.23;;;;;;;;;;6145552;23;20017;-52
2022/04/14 11:19:19;;;;;;;3.55;1.40;;;;;;;;;;6145009;23;20018;-52
2022/04/14 11:22:08;;;;;;;5.32;1.35;;;;;;;;;;6145950;23;20017;-52
2022/04/14 11:24:38;;;;;;;3.50;1.63;;;;;;;;;;6146721;23;20070;-50
2022/04/14 11:27:11;;;;;;;2.08;1.27;;;;;;;;;;6146304;23;20544;-54
2022/04/14 11:29:37;;;;;;;1.90;1.30;;;;;;;;;;6145417;23;20014;-53
2022/04/14 11:32:02;;;;;;;2.20;1.33;;;;;;;;;;6146469;23;20044;-53
2022/04/14 11:34:31;;;;;;;1.73;0.80;;;;;;;;;;6145229;23;20495;-54
2022/04/14 11:36:57;;;;;;;2.53;0.90;;;;;;;;;;6144619;23;20017;-52
2022/04/14 11:39:23;;;;;;;3.95;1.05;;;;;;;;;;6145301;23;20023;-53
2022/04/14 11:41:50;;;;;;;2.42;1.17;;;;;;;;;;6142580;23;20032;-52
2022/04/14 11:44:30;;;;;;;1.60;0.77;;;;;;;;;;6145682;23;20342;-51
2022/04/14 11:46:56;;;;;;;2.95;0.88;;;;;;;;;;6144662;23;20091;-54
2022/04/14 11:49:23;;;;;;;4.70;1.02;;;;;;;;;;6146521;23;20021;-55
2022/04/14 11:51:49;;;;;;;2.15;1.15;;;;;;;;;;6141271;23;20018;-55
2022/04/14 11:54:21;;;;;;;7.57;1.67;;;;;;;;;;6145194;23;20119;-52
2022/04/14 11:56:53;;;;;;;1.55;0.77;;;;;;;;;;6144100;23;20476;-53
2022/04/14 11:59:39;;;;;;;1.85;0.80;;;;;;;;;;6145040;23;20018;-53
2022/04/14 12:02:09;;;;;;;1.48;0.63;;;;;;;;;;6144898;23;20336;-54
2022/04/14 12:04:44;;;;;;;0.88;0.60;;;;;;;;;;6143358;23;20038;-52
2022/04/14 12:07:09;;;;;;;2.38;0.95;;;;;;;;;;6139476;23;20034;-53
2022/04/14 12:09:37;;;;;;;2.40;1.00;;;;;;;;;;6146203;23;20017;-54
2022/04/14 12:12:12;;;;;;;4.15;0.77;;;;;;;;;;6143772;23;20018;-50
2022/04/14 12:14:47;;;;;;;3.97;1.17;;;;;;;;;;6144331;23;20214;-51
2022/04/14 12:17:16;;;;;;;2.60;0.95;;;;;;;;;;6145535;23;20037;-51
2022/04/14 12:19:46;;;;;;;3.35;0.85;;;;;;;;;;6146264;23;20013;-55
2022/04/14 12:22:11;;;;;;;;;;;;;;;;;;6146094;23;20017;-53
2022/04/14 12:24:36;;;;;;;2.57;1.00;;;;;;;;;;6145509;23;19904;-53
2022/04/14 12:27:02;;;;;;;1.10;1.00;;;;;;;;;;6146032;23;20267;-53
2022/04/14 12:29:27;;;;;;;3.65;0.98;;;;;;;;;;6145184;23;20125;-55
2022/04/14 12:31:57;;;;;;;1.73;1.33;;;;;;;;;;6138795;23;20044;-52
2022/04/14 12:34:22;;;;;;;;;;;;;;;;;;6141935;23;20176;-55
2022/04/14 12:36:48;;;;;;;1.30;0.95;;;;;;;;;;6141393;23;20255;-55
2022/04/14 12:39:18;;;;;;;1.65;1.00;;;;;;;;;;6139160;23;20005;-53
2022/04/14 12:41:43;;;;;;;5.55;1.30;;;;;;;;;;6136276;23;20069;-52
2022/04/14 12:44:08;;;;;;;1.83;1.00;;;;;;;;;;6138708;23;20029;-54
2022/04/14 12:46:37;;;;;;;1.77;0.80;;;;;;;;;;6141328;23;20231;-54
2022/04/14 12:49:12;;;;;;;1.88;1.00;;;;;;;;;;6140234;23;20027;-55
2022/04/14 12:51:39;;;;;;;3.17;1.10;;;;;;;;;;6141496;23;20096;-54
2022/04/14 12:54:05;;;;;;;1.58;0.90;;;;;;;;;;6139452;23;20355;-55
2022/04/14 12:56:32;;;;;;;1.95;1.00;;;;;;;;;;6141150;23;20073;-55
2022/04/14 12:59:06;;;;;;;3.45;1.20;;;;;;;;;;6140065;23;20024;-56
2022/04/14 13:01:48;;;;;;;1.50;1.17;;;;;;;;;;6140909;23;20013;-55
2022/04/14 13:04:13;;;;;;;4.28;0.90;;;;;;;;;;6141402;23;20040;-51
2022/04/14 13:06:38;;;;;;;4.65;1.48;;;;;;;;;;6139718;23;20013;-53
2022/04/14 13:09:16;;;;;;;1.65;1.20;;;;;;;;;;6142480;23;20018;-54
2022/04/14 13:11:46;;;;;;;3.63;1.35;;;;;;;;;;6143653;23;20017;-53
2022/04/14 13:14:20;;;;;;;2.47;0.95;;;;;;;;;;6145108;23;20029;-54
2022/04/14 13:16:46;;;;;;;1.10;0.80;;;;;;;;;;6145382;23;20013;-55
2022/04/14 13:19:11;;;;;;;1.58;0.90;;;;;;;;;;6143823;23;20048;-54
2022/04/14 13:21:37;;;;;;;2.35;1.25;;;;;;;;;;6140040;23;20677;-53
2022/04/14 13:24:02;;;;;;;5.65;1.00;;;;;;;;;;6142728;23;20014;-55
2022/04/14 13:26:27;;;;;;;5.40;1.63;;;;;;;;;;6143247;23;20237;-55
2022/04/14 13:28:53;;;;;;;6.68;2.17;;;;;;;;;;6143748;23;20363;-52
2022/04/14 13:31:18;;;;;;;5.47;1.88;;;;;;;;;;6144554;23;20015;-53
2022/04/14 13:33:43;;;;;;;4.75;2.47;;;;;;;;;;6144704;23;20065;-54
2022/04/14 13:36:08;;;;;;;6.25;2.45;;;;;;;;;;6143436;23;20010;-55
2022/04/14 13:38:34;;;;;;;4.60;2.22;;;;;;;;;;6144490;23;20284;-51
2022/04/14 13:40:59;;;;;;;2.80;1.83;;;;;;;;;;6143052;23;20021;-55
2022/04/14 13:43:25;;;;;;;2.97;2.20;;;;;;;;;;6143835;23;20041;-54
2022/04/14 13:45:50;;;;;;;6.20;2.47;;;;;;;;;;6145333;23;20148;-52
2022/04/14 13:48:15;;;;;;;4.55;2.17;;;;;;;;;;6140398;23;20939;-52
2022/04/14 13:50:43;;;;;;;5.30;2.20;;;;;;;;;;6147263;23;20021;-53
2022/04/14 13:53:10;;;;;;;5.00;1.60;;;;;;;;;;6142547;23;20014;-53
2022/04/14 13:55:37;;;;;;;4.07;1.60;;;;;;;;;;6146407;23;20010;-53
2022/04/14 13:58:02;;;;;;;8.20;1.98;;;;;;;;;;6142515;23;20088;-54
2022/04/14 14:00:27;;;;;;;4.85;1.83;;;;;;;;;;6146377;23;20014;-53
2022/04/14 14:02:53;;;;;;;4.65;1.63;;;;;;;;;;6146125;23;20029;-53
2022/04/14 14:05:19;;;;;;;6.35;1.75;;;;;;;;;;6147039;23;20033;-54
2022/04/14 14:07:44;;;;;;;2.13;1.35;;;;;;;;;;6169790;23;20331;-53
2022/04/14 14:10:09;;;;;;;5.72;1.70;;;;;;;;;;6147210;23;20644;-53
2022/04/14 14:12:39;;;;;;;1.50;1.23;;;;;;;;;;6144234;23;20077;-51
2022/04/14 14:15:04;;;;;;;5.28;1.23;;;;;;;;;;6142367;23;20315;-55
2022/04/14 14:17:30;;;;;;;2.08;0.82;;;;;;;;;;6142388;23;20468;-53
2022/04/14 14:19:55;;;;;;;1.90;0.88;;;;;;;;;;6147199;23;20029;-56
2022/04/14 14:22:20;;;;;;;3.28;0.90;;;;;;;;;;6144743;23;20006;-54
2022/04/14 14:24:45;;;;;;;3.72;0.95;;;;;;;;;;6144350;23;20021;-55
2022/04/14 14:27:11;;;;;;;4.22;1.23;;;;;;;;;;6146803;23;20022;-55
2022/04/14 14:29:36;;;;;;;1.83;1.27;;;;;;;;;;6144917;23;20017;-54